sensor_id;sensor_type;location;lat;lon;timestamp;temperature;humidity
19622;DHT22;9958;33.196;-97.114;2024-02-26T00:01:15;27.30;41.70
19622;DHT22;9958;33.196;-97.114;2024-02-26T00:03:45;27.20;42.10
19622;DHT22;9958;33.196;-97.114;2024-02-26T00:06:13;27.10;42.30
19622;DHT22;9958;33.196;-97.114;2024-02-26T00:08:42;27.00;42.50
19622;DHT22;9958;33.196;-97.114;2024-02-26T00:11:10;26.90;42.90
19622;DHT22;9958;33.196;-97.114;2024-02-26T00:13:38;26.80;43.10
19622;DHT22;9958;33.196;-97.114;2024-02-26T00:16:07;26.60;43.20
19622;DHT22;9958;33.196;-97.114;2024-02-26T00:18:35;26.50;44.20
19622;DHT22;9958;33.196;-97.114;2024-02-26T00:21:05;26.40;44.60
19622;DHT22;9958;33.196;-97.114;2024-02-26T00:23:34;26.20;44.90
19622;DHT22;9958;33.196;-97.114;2024-02-26T00:26:02;26.10;44.70
19622;DHT22;9958;33.196;-97.114;2024-02-26T00:28:30;25.90;45.50
19622;DHT22;9958;33.196;-97.114;2024-02-26T00:30:59;25.80;45.60
19622;DHT22;9958;33.196;-97.114;2024-02-26T00:33:27;25.60;46.10
19622;DHT22;9958;33.196;-97.114;2024-02-26T00:35:56;25.50;46.00
19622;DHT22;9958;33.196;-97.114;2024-02-26T00:38:25;25.30;46.20
19622;DHT22;9958;33.196;-97.114;2024-02-26T00:40:54;25.10;46.40
19622;DHT22;9958;33.196;-97.114;2024-02-26T00:43:22;25.00;46.80
19622;DHT22;9958;33.196;-97.114;2024-02-26T00:45:51;24.80;47.80
19622;DHT22;9958;33.196;-97.114;2024-02-26T00:48:19;24.70;48.20
19622;DHT22;9958;33.196;-97.114;2024-02-26T00:50:48;24.50;48.30
19622;DHT22;9958;33.196;-97.114;2024-02-26T00:53:16;24.40;48.60
19622;DHT22;9958;33.196;-97.114;2024-02-26T00:55:46;24.30;48.90
19622;DHT22;9958;33.196;-97.114;2024-02-26T00:58:14;24.10;48.70
19622;DHT22;9958;33.196;-97.114;2024-02-26T01:00:43;23.90;48.50
19622;DHT22;9958;33.196;-97.114;2024-02-26T01:03:11;23.80;48.70
19622;DHT22;9958;33.196;-97.114;2024-02-26T01:05:39;23.70;49.90
19622;DHT22;9958;33.196;-97.114;2024-02-26T01:08:08;23.60;50.30
19622;DHT22;9958;33.196;-97.114;2024-02-26T01:10:36;23.50;50.50
19622;DHT22;9958;33.196;-97.114;2024-02-26T01:13:06;23.30;50.60
19622;DHT22;9958;33.196;-97.114;2024-02-26T01:15:35;23.20;50.50
19622;DHT22;9958;33.196;-97.114;2024-02-26T01:18:04;23.10;50.70
19622;DHT22;9958;33.196;-97.114;2024-02-26T01:20:32;23.00;50.50
19622;DHT22;9958;33.196;-97.114;2024-02-26T01:23:00;22.90;51.40
19622;DHT22;9958;33.196;-97.114;2024-02-26T01:25:29;22.80;51.40
19622;DHT22;9958;33.196;-97.114;2024-02-26T01:27:57;22.70;51.80
19622;DHT22;9958;33.196;-97.114;2024-02-26T01:30:27;22.60;51.80
19622;DHT22;9958;33.196;-97.114;2024-02-26T01:32:55;22.50;51.90
19622;DHT22;9958;33.196;-97.114;2024-02-26T01:35:24;22.40;52.30
19622;DHT22;9958;33.196;-97.114;2024-02-26T01:37:52;22.40;51.90
19622;DHT22;9958;33.196;-97.114;2024-02-26T01:40:21;22.20;51.90
19622;DHT22;9958;33.196;-97.114;2024-02-26T01:42:49;22.20;52.10
19622;DHT22;9958;33.196;-97.114;2024-02-26T01:45:20;22.10;52.00
19622;DHT22;9958;33.196;-97.114;2024-02-26T01:47:53;22.00;52.70
19622;DHT22;9958;33.196;-97.114;2024-02-26T01:50:22;22.00;53.10
19622;DHT22;9958;33.196;-97.114;2024-02-26T01:52:51;21.90;53.60
19622;DHT22;9958;33.196;-97.114;2024-02-26T01:55:21;21.80;53.60
19622;DHT22;9958;33.196;-97.114;2024-02-26T01:57:51;21.70;54.00
19622;DHT22;9958;33.196;-97.114;2024-02-26T02:00:20;21.70;54.50
19622;DHT22;9958;33.196;-97.114;2024-02-26T02:02:49;21.60;54.10
19622;DHT22;9958;33.196;-97.114;2024-02-26T02:05:21;21.50;54.00
19622;DHT22;9958;33.196;-97.114;2024-02-26T02:07:50;21.30;53.40
19622;DHT22;9958;33.196;-97.114;2024-02-26T02:10:19;21.20;53.00
19622;DHT22;9958;33.196;-97.114;2024-02-26T02:12:51;21.10;53.20
19622;DHT22;9958;33.196;-97.114;2024-02-26T02:15:20;21.00;53.70
19622;DHT22;9958;33.196;-97.114;2024-02-26T02:17:49;20.90;53.80
19622;DHT22;9958;33.196;-97.114;2024-02-26T02:22:50;20.70;53.90
19622;DHT22;9958;33.196;-97.114;2024-02-26T02:25:18;20.60;54.10
19622;DHT22;9958;33.196;-97.114;2024-02-26T02:27:46;20.50;54.20
19622;DHT22;9958;33.196;-97.114;2024-02-26T02:30:15;20.50;55.90
19622;DHT22;9958;33.196;-97.114;2024-02-26T02:32:44;20.30;56.10
19622;DHT22;9958;33.196;-97.114;2024-02-26T02:35:12;20.30;56.10
19622;DHT22;9958;33.196;-97.114;2024-02-26T02:37:41;20.20;55.40
19622;DHT22;9958;33.196;-97.114;2024-02-26T02:40:11;20.10;55.90
19622;DHT22;9958;33.196;-97.114;2024-02-26T02:42:40;20.00;56.10
19622;DHT22;9958;33.196;-97.114;2024-02-26T02:45:09;19.90;56.80
19622;DHT22;9958;33.196;-97.114;2024-02-26T02:47:38;19.80;56.80
19622;DHT22;9958;33.196;-97.114;2024-02-26T02:50:07;19.70;56.30
19622;DHT22;9958;33.196;-97.114;2024-02-26T02:52:35;19.60;56.20
19622;DHT22;9958;33.196;-97.114;2024-02-26T02:55:04;19.50;56.40
19622;DHT22;9958;33.196;-97.114;2024-02-26T02:57:34;19.40;56.80
19622;DHT22;9958;33.196;-97.114;2024-02-26T03:00:09;19.40;56.80
19622;DHT22;9958;33.196;-97.114;2024-02-26T03:02:37;19.30;56.90
19622;DHT22;9958;33.196;-97.114;2024-02-26T03:05:06;19.20;57.20
19622;DHT22;9958;33.196;-97.114;2024-02-26T03:07:35;19.20;58.20
19622;DHT22;9958;33.196;-97.114;2024-02-26T03:10:03;19.10;58.30
19622;DHT22;9958;33.196;-97.114;2024-02-26T03:12:34;19.00;58.50
19622;DHT22;9958;33.196;-97.114;2024-02-26T03:15:03;19.00;58.80
19622;DHT22;9958;33.196;-97.114;2024-02-26T03:17:31;18.90;58.50
19622;DHT22;9958;33.196;-97.114;2024-02-26T03:19:59;18.80;58.40
19622;DHT22;9958;33.196;-97.114;2024-02-26T03:22:29;18.80;58.50
19622;DHT22;9958;33.196;-97.114;2024-02-26T03:24:58;18.70;58.40
19622;DHT22;9958;33.196;-97.114;2024-02-26T03:27:26;18.60;58.40
19622;DHT22;9958;33.196;-97.114;2024-02-26T03:29:56;18.60;58.50
19622;DHT22;9958;33.196;-97.114;2024-02-26T03:32:24;18.60;59.00
19622;DHT22;9958;33.196;-97.114;2024-02-26T03:34:52;18.50;59.70
19622;DHT22;9958;33.196;-97.114;2024-02-26T03:37:22;18.50;59.70
19622;DHT22;9958;33.196;-97.114;2024-02-26T03:39:50;18.40;59.50
19622;DHT22;9958;33.196;-97.114;2024-02-26T03:42:18;18.40;59.50
19622;DHT22;9958;33.196;-97.114;2024-02-26T03:44:47;18.40;59.50
19622;DHT22;9958;33.196;-97.114;2024-02-26T03:47:17;18.40;59.60
19622;DHT22;9958;33.196;-97.114;2024-02-26T03:49:46;18.40;59.60
19622;DHT22;9958;33.196;-97.114;2024-02-26T03:52:14;18.30;59.50
19622;DHT22;9958;33.196;-97.114;2024-02-26T03:54:43;18.40;59.60
19622;DHT22;9958;33.196;-97.114;2024-02-26T03:57:11;18.40;59.60
19622;DHT22;9958;33.196;-97.114;2024-02-26T03:59:39;18.40;59.60
19622;DHT22;9958;33.196;-97.114;2024-02-26T04:02:08;18.40;59.60
19622;DHT22;9958;33.196;-97.114;2024-02-26T04:04:38;18.40;59.60
19622;DHT22;9958;33.196;-97.114;2024-02-26T04:07:06;18.40;59.30
19622;DHT22;9958;33.196;-97.114;2024-02-26T04:09:34;18.40;59.20
19622;DHT22;9958;33.196;-97.114;2024-02-26T04:12:03;18.40;59.60
19622;DHT22;9958;33.196;-97.114;2024-02-26T04:14:31;18.40;59.60
19622;DHT22;9958;33.196;-97.114;2024-02-26T04:17:00;18.40;59.80
19622;DHT22;9958;33.196;-97.114;2024-02-26T04:19:28;18.30;59.60
19622;DHT22;9958;33.196;-97.114;2024-02-26T04:21:58;18.30;59.50
19622;DHT22;9958;33.196;-97.114;2024-02-26T04:24:27;18.30;59.50
19622;DHT22;9958;33.196;-97.114;2024-02-26T04:26:55;18.30;59.50
19622;DHT22;9958;33.196;-97.114;2024-02-26T04:29:23;18.30;59.80
19622;DHT22;9958;33.196;-97.114;2024-02-26T04:31:52;18.30;59.90
19622;DHT22;9958;33.196;-97.114;2024-02-26T04:34:20;18.30;60.40
19622;DHT22;9958;33.196;-97.114;2024-02-26T04:36:48;18.20;60.90
19622;DHT22;9958;33.196;-97.114;2024-02-26T04:39:19;18.20;60.70
19622;DHT22;9958;33.196;-97.114;2024-02-26T04:41:47;18.10;60.30
19622;DHT22;9958;33.196;-97.114;2024-02-26T04:44:15;18.10;60.50
19622;DHT22;9958;33.196;-97.114;2024-02-26T04:46:44;18.10;60.80
19622;DHT22;9958;33.196;-97.114;2024-02-26T04:49:12;18.00;61.30
19622;DHT22;9958;33.196;-97.114;2024-02-26T04:51:40;17.90;61.50
19622;DHT22;9958;33.196;-97.114;2024-02-26T04:54:08;17.90;63.10
19622;DHT22;9958;33.196;-97.114;2024-02-26T04:56:38;17.80;62.80
19622;DHT22;9958;33.196;-97.114;2024-02-26T04:59:07;17.70;62.80
19622;DHT22;9958;33.196;-97.114;2024-02-26T05:01:35;17.60;63.00
19622;DHT22;9958;33.196;-97.114;2024-02-26T05:04:04;17.60;63.80
19622;DHT22;9958;33.196;-97.114;2024-02-26T05:06:32;17.50;64.20
19622;DHT22;9958;33.196;-97.114;2024-02-26T05:09:01;17.40;64.10
19622;DHT22;9958;33.196;-97.114;2024-02-26T05:11:30;17.40;64.50
19622;DHT22;9958;33.196;-97.114;2024-02-26T05:14:00;17.30;64.50
19622;DHT22;9958;33.196;-97.114;2024-02-26T05:16:28;17.20;64.70
19622;DHT22;9958;33.196;-97.114;2024-02-26T05:18:57;17.20;65.00
19622;DHT22;9958;33.196;-97.114;2024-02-26T05:21:25;17.10;66.10
19622;DHT22;9958;33.196;-97.114;2024-02-26T05:23:54;17.00;66.50
19622;DHT22;9958;33.196;-97.114;2024-02-26T05:26:22;17.00;66.70
19622;DHT22;9958;33.196;-97.114;2024-02-26T05:28:51;16.90;67.00
19622;DHT22;9958;33.196;-97.114;2024-02-26T05:31:21;16.80;67.30
19622;DHT22;9958;33.196;-97.114;2024-02-26T05:33:49;16.80;68.40
19622;DHT22;9958;33.196;-97.114;2024-02-26T05:36:20;16.80;68.60
19622;DHT22;9958;33.196;-97.114;2024-02-26T05:38:49;16.70;68.70
19622;DHT22;9958;33.196;-97.114;2024-02-26T05:41:17;16.70;69.30
19622;DHT22;9958;33.196;-97.114;2024-02-26T05:43:49;16.60;69.70
19622;DHT22;9958;33.196;-97.114;2024-02-26T05:46:18;16.60;70.60
19622;DHT22;9958;33.196;-97.114;2024-02-26T05:48:49;16.60;71.60
19622;DHT22;9958;33.196;-97.114;2024-02-26T05:51:18;16.50;72.90
19622;DHT22;9958;33.196;-97.114;2024-02-26T05:53:46;16.50;74.30
19622;DHT22;9958;33.196;-97.114;2024-02-26T05:56:21;16.50;75.90
19622;DHT22;9958;33.196;-97.114;2024-02-26T05:58:50;16.50;77.50
19622;DHT22;9958;33.196;-97.114;2024-02-26T06:01:19;16.50;78.80
19622;DHT22;9958;33.196;-97.114;2024-02-26T06:03:49;16.50;80.70
19622;DHT22;9958;33.196;-97.114;2024-02-26T06:06:17;16.50;82.00
19622;DHT22;9958;33.196;-97.114;2024-02-26T06:08:45;16.50;83.20
19622;DHT22;9958;33.196;-97.114;2024-02-26T06:11:14;16.50;85.70
19622;DHT22;9958;33.196;-97.114;2024-02-26T06:13:42;16.50;88.60
19622;DHT22;9958;33.196;-97.114;2024-02-26T06:16:10;16.50;90.40
19622;DHT22;9958;33.196;-97.114;2024-02-26T06:18:39;16.50;91.40
19622;DHT22;9958;33.196;-97.114;2024-02-26T06:21:11;16.50;92.50
19622;DHT22;9958;33.196;-97.114;2024-02-26T06:23:39;16.60;94.30
19622;DHT22;9958;33.196;-97.114;2024-02-26T06:26:08;16.60;95.20
19622;DHT22;9958;33.196;-97.114;2024-02-26T06:28:36;16.60;96.40
19622;DHT22;9958;33.196;-97.114;2024-02-26T06:31:07;16.70;97.70
19622;DHT22;9958;33.196;-97.114;2024-02-26T06:33:35;16.80;98.90
19622;DHT22;9958;33.196;-97.114;2024-02-26T06:36:04;16.80;99.90
19622;DHT22;9958;33.196;-97.114;2024-02-26T06:38:34;16.80;99.90
19622;DHT22;9958;33.196;-97.114;2024-02-26T06:41:02;16.90;99.90
19622;DHT22;9958;33.196;-97.114;2024-02-26T06:43:31;17.00;99.90
19622;DHT22;9958;33.196;-97.114;2024-02-26T06:45:59;17.00;99.90
19622;DHT22;9958;33.196;-97.114;2024-02-26T06:48:27;17.00;99.90
19622;DHT22;9958;33.196;-97.114;2024-02-26T06:50:56;17.10;99.90
19622;DHT22;9958;33.196;-97.114;2024-02-26T06:53:24;17.20;99.90
19622;DHT22;9958;33.196;-97.114;2024-02-26T06:55:54;17.20;99.90
19622;DHT22;9958;33.196;-97.114;2024-02-26T06:58:22;17.20;99.90
19622;DHT22;9958;33.196;-97.114;2024-02-26T07:00:50;17.20;99.90
19622;DHT22;9958;33.196;-97.114;2024-02-26T07:03:19;17.20;99.90
19622;DHT22;9958;33.196;-97.114;2024-02-26T07:05:49;17.30;99.90
19622;DHT22;9958;33.196;-97.114;2024-02-26T07:08:17;17.30;99.90
19622;DHT22;9958;33.196;-97.114;2024-02-26T07:10:45;17.20;99.90
19622;DHT22;9958;33.196;-97.114;2024-02-26T07:13:15;17.20;99.90
19622;DHT22;9958;33.196;-97.114;2024-02-26T07:15:44;17.20;99.90
19622;DHT22;9958;33.196;-97.114;2024-02-26T07:18:12;17.30;99.90
19622;DHT22;9958;33.196;-97.114;2024-02-26T07:20:40;17.20;99.90
19622;DHT22;9958;33.196;-97.114;2024-02-26T07:23:08;17.20;99.90
19622;DHT22;9958;33.196;-97.114;2024-02-26T07:25:37;17.20;99.90
19622;DHT22;9958;33.196;-97.114;2024-02-26T07:28:06;17.20;99.90
19622;DHT22;9958;33.196;-97.114;2024-02-26T07:30:36;17.20;99.90
19622;DHT22;9958;33.196;-97.114;2024-02-26T07:33:04;17.20;99.90
19622;DHT22;9958;33.196;-97.114;2024-02-26T07:35:33;17.20;99.90
19622;DHT22;9958;33.196;-97.114;2024-02-26T07:38:02;17.10;99.90
19622;DHT22;9958;33.196;-97.114;2024-02-26T07:40:31;17.10;99.90
19622;DHT22;9958;33.196;-97.114;2024-02-26T07:42:59;17.10;99.90
19622;DHT22;9958;33.196;-97.114;2024-02-26T07:45:27;17.10;99.90
19622;DHT22;9958;33.196;-97.114;2024-02-26T07:47:57;17.10;99.90
19622;DHT22;9958;33.196;-97.114;2024-02-26T07:50:26;17.10;99.90
19622;DHT22;9958;33.196;-97.114;2024-02-26T07:52:54;17.10;99.90
19622;DHT22;9958;33.196;-97.114;2024-02-26T07:55:22;17.00;99.90
19622;DHT22;9958;33.196;-97.114;2024-02-26T07:57:50;17.00;99.90
19622;DHT22;9958;33.196;-97.114;2024-02-26T08:00:19;17.00;99.90
19622;DHT22;9958;33.196;-97.114;2024-02-26T08:02:48;17.00;99.90
19622;DHT22;9958;33.196;-97.114;2024-02-26T08:05:18;17.00;99.90
19622;DHT22;9958;33.196;-97.114;2024-02-26T08:07:46;17.00;99.90
19622;DHT22;9958;33.196;-97.114;2024-02-26T08:10:15;17.00;99.90
19622;DHT22;9958;33.196;-97.114;2024-02-26T08:12:43;17.00;99.90
19622;DHT22;9958;33.196;-97.114;2024-02-26T08:15:12;17.00;99.90
19622;DHT22;9958;33.196;-97.114;2024-02-26T08:17:41;17.00;99.90
19622;DHT22;9958;33.196;-97.114;2024-02-26T08:20:10;17.00;99.90
19622;DHT22;9958;33.196;-97.114;2024-02-26T08:22:41;17.00;99.90
19622;DHT22;9958;33.196;-97.114;2024-02-26T08:25:10;16.90;99.90
19622;DHT22;9958;33.196;-97.114;2024-02-26T08:27:38;16.90;99.90
19622;DHT22;9958;33.196;-97.114;2024-02-26T08:30:08;16.90;99.90
19622;DHT22;9958;33.196;-97.114;2024-02-26T08:32:37;16.90;99.90
19622;DHT22;9958;33.196;-97.114;2024-02-26T08:35:06;16.90;99.90
19622;DHT22;9958;33.196;-97.114;2024-02-26T08:37:34;16.90;99.90
19622;DHT22;9958;33.196;-97.114;2024-02-26T08:40:05;16.90;99.90
19622;DHT22;9958;33.196;-97.114;2024-02-26T08:42:33;16.90;99.90
19622;DHT22;9958;33.196;-97.114;2024-02-26T08:45:03;16.80;99.90
19622;DHT22;9958;33.196;-97.114;2024-02-26T08:47:31;16.80;99.90
19622;DHT22;9958;33.196;-97.114;2024-02-26T08:49:59;16.80;99.90
19622;DHT22;9958;33.196;-97.114;2024-02-26T08:52:27;16.70;99.90
19622;DHT22;9958;33.196;-97.114;2024-02-26T08:54:56;16.70;99.90
19622;DHT22;9958;33.196;-97.114;2024-02-26T08:57:26;16.70;99.90
19622;DHT22;9958;33.196;-97.114;2024-02-26T08:59:54;16.70;99.90
19622;DHT22;9958;33.196;-97.114;2024-02-26T09:02:23;16.70;99.90
19622;DHT22;9958;33.196;-97.114;2024-02-26T09:04:51;16.60;99.90
19622;DHT22;9958;33.196;-97.114;2024-02-26T09:07:21;16.60;99.90
19622;DHT22;9958;33.196;-97.114;2024-02-26T09:09:49;16.60;99.90
19622;DHT22;9958;33.196;-97.114;2024-02-26T09:12:18;16.60;99.90
19622;DHT22;9958;33.196;-97.114;2024-02-26T09:14:48;16.60;99.90
19622;DHT22;9958;33.196;-97.114;2024-02-26T09:17:16;16.50;99.90
19622;DHT22;9958;33.196;-97.114;2024-02-26T09:19:44;16.50;99.90
19622;DHT22;9958;33.196;-97.114;2024-02-26T09:22:12;16.50;99.90
19622;DHT22;9958;33.196;-97.114;2024-02-26T09:24:41;16.40;99.90
19622;DHT22;9958;33.196;-97.114;2024-02-26T09:27:09;16.40;99.90
19622;DHT22;9958;33.196;-97.114;2024-02-26T09:29:37;16.40;99.90
19622;DHT22;9958;33.196;-97.114;2024-02-26T09:32:07;16.40;99.90
19622;DHT22;9958;33.196;-97.114;2024-02-26T09:34:36;16.40;99.90
19622;DHT22;9958;33.196;-97.114;2024-02-26T09:37:05;16.30;99.90
19622;DHT22;9958;33.196;-97.114;2024-02-26T09:39:33;16.30;99.90
19622;DHT22;9958;33.196;-97.114;2024-02-26T09:42:05;16.20;99.90
19622;DHT22;9958;33.196;-97.114;2024-02-26T09:44:36;16.20;99.90
19622;DHT22;9958;33.196;-97.114;2024-02-26T09:47:11;16.20;99.90
19622;DHT22;9958;33.196;-97.114;2024-02-26T09:49:43;16.10;99.90
19622;DHT22;9958;33.196;-97.114;2024-02-26T09:52:11;16.10;99.90
19622;DHT22;9958;33.196;-97.114;2024-02-26T09:54:40;16.10;99.90
19622;DHT22;9958;33.196;-97.114;2024-02-26T09:57:10;16.00;99.90
19622;DHT22;9958;33.196;-97.114;2024-02-26T09:59:42;16.00;99.90
19622;DHT22;9958;33.196;-97.114;2024-02-26T10:02:13;16.00;99.90
19622;DHT22;9958;33.196;-97.114;2024-02-26T10:04:43;15.90;99.90
19622;DHT22;9958;33.196;-97.114;2024-02-26T10:07:12;15.90;99.90
19622;DHT22;9958;33.196;-97.114;2024-02-26T10:09:41;15.90;99.90
19622;DHT22;9958;33.196;-97.114;2024-02-26T10:12:10;15.80;99.90
19622;DHT22;9958;33.196;-97.114;2024-02-26T10:14:39;15.80;99.90
19622;DHT22;9958;33.196;-97.114;2024-02-26T10:17:08;15.80;99.90
19622;DHT22;9958;33.196;-97.114;2024-02-26T10:19:38;15.80;99.90
19622;DHT22;9958;33.196;-97.114;2024-02-26T10:22:06;15.70;99.90
19622;DHT22;9958;33.196;-97.114;2024-02-26T10:24:35;15.70;99.90
19622;DHT22;9958;33.196;-97.114;2024-02-26T10:27:03;15.70;99.90
19622;DHT22;9958;33.196;-97.114;2024-02-26T10:29:33;15.60;99.90
19622;DHT22;9958;33.196;-97.114;2024-02-26T10:32:01;15.60;99.90
19622;DHT22;9958;33.196;-97.114;2024-02-26T10:34:30;15.60;99.90
19622;DHT22;9958;33.196;-97.114;2024-02-26T10:37:01;15.60;99.90
19622;DHT22;9958;33.196;-97.114;2024-02-26T10:39:29;15.50;99.90
19622;DHT22;9958;33.196;-97.114;2024-02-26T10:41:58;15.50;99.90
19622;DHT22;9958;33.196;-97.114;2024-02-26T10:44:31;15.50;99.90
19622;DHT22;9958;33.196;-97.114;2024-02-26T10:46:59;15.40;99.90
19622;DHT22;9958;33.196;-97.114;2024-02-26T10:49:28;15.40;99.90
19622;DHT22;9958;33.196;-97.114;2024-02-26T10:51:57;15.40;99.90
19622;DHT22;9958;33.196;-97.114;2024-02-26T10:54:27;15.40;99.90
19622;DHT22;9958;33.196;-97.114;2024-02-26T10:56:57;15.40;99.90
19622;DHT22;9958;33.196;-97.114;2024-02-26T10:59:27;15.30;99.90
19622;DHT22;9958;33.196;-97.114;2024-02-26T11:01:55;15.30;99.90
19622;DHT22;9958;33.196;-97.114;2024-02-26T11:04:24;15.30;99.90
19622;DHT22;9958;33.196;-97.114;2024-02-26T11:06:55;15.30;99.90
19622;DHT22;9958;33.196;-97.114;2024-02-26T11:09:26;15.20;99.90
19622;DHT22;9958;33.196;-97.114;2024-02-26T11:11:55;15.10;99.90
19622;DHT22;9958;33.196;-97.114;2024-02-26T11:14:26;15.10;99.90
19622;DHT22;9958;33.196;-97.114;2024-02-26T11:16:57;15.00;99.90
19622;DHT22;9958;33.196;-97.114;2024-02-26T11:19:27;14.90;99.90
19622;DHT22;9958;33.196;-97.114;2024-02-26T11:21:56;14.90;99.90
19622;DHT22;9958;33.196;-97.114;2024-02-26T11:24:26;14.90;99.90
19622;DHT22;9958;33.196;-97.114;2024-02-26T11:26:57;14.80;99.90
19622;DHT22;9958;33.196;-97.114;2024-02-26T11:29:29;14.80;99.90
19622;DHT22;9958;33.196;-97.114;2024-02-26T11:31:59;14.70;99.90
19622;DHT22;9958;33.196;-97.114;2024-02-26T11:34:28;14.70;99.90
19622;DHT22;9958;33.196;-97.114;2024-02-26T11:36:56;14.60;99.90
19622;DHT22;9958;33.196;-97.114;2024-02-26T11:39:29;14.60;99.90
19622;DHT22;9958;33.196;-97.114;2024-02-26T11:42:05;14.50;99.90
19622;DHT22;9958;33.196;-97.114;2024-02-26T11:44:34;14.50;99.90
19622;DHT22;9958;33.196;-97.114;2024-02-26T11:47:13;14.40;99.90
19622;DHT22;9958;33.196;-97.114;2024-02-26T11:49:42;14.40;99.90
19622;DHT22;9958;33.196;-97.114;2024-02-26T11:52:10;14.40;99.90
19622;DHT22;9958;33.196;-97.114;2024-02-26T11:54:44;14.30;99.90
19622;DHT22;9958;33.196;-97.114;2024-02-26T11:57:25;14.30;99.90
19622;DHT22;9958;33.196;-97.114;2024-02-26T11:59:55;14.20;99.90
19622;DHT22;9958;33.196;-97.114;2024-02-26T12:02:46;14.20;99.90
19622;DHT22;9958;33.196;-97.114;2024-02-26T12:05:16;14.20;99.90
19622;DHT22;9958;33.196;-97.114;2024-02-26T12:07:46;14.20;99.90
19622;DHT22;9958;33.196;-97.114;2024-02-26T12:10:25;14.10;99.90
19622;DHT22;9958;33.196;-97.114;2024-02-26T12:12:58;14.10;99.90
19622;DHT22;9958;33.196;-97.114;2024-02-26T12:15:32;14.10;99.90
19622;DHT22;9958;33.196;-97.114;2024-02-26T12:18:02;14.00;99.90
19622;DHT22;9958;33.196;-97.114;2024-02-26T12:20:30;14.00;99.90
19622;DHT22;9958;33.196;-97.114;2024-02-26T12:22:59;14.00;99.90
19622;DHT22;9958;33.196;-97.114;2024-02-26T12:25:29;13.90;99.90
19622;DHT22;9958;33.196;-97.114;2024-02-26T12:27:59;13.90;99.90
19622;DHT22;9958;33.196;-97.114;2024-02-26T12:30:27;13.90;99.90
19622;DHT22;9958;33.196;-97.114;2024-02-26T12:32:58;13.90;99.90
19622;DHT22;9958;33.196;-97.114;2024-02-26T12:35:27;13.80;99.90
19622;DHT22;9958;33.196;-97.114;2024-02-26T12:37:58;13.80;99.90
19622;DHT22;9958;33.196;-97.114;2024-02-26T12:40:29;13.70;99.90
19622;DHT22;9958;33.196;-97.114;2024-02-26T12:42:58;13.70;99.90
19622;DHT22;9958;33.196;-97.114;2024-02-26T12:45:26;13.60;99.90
19622;DHT22;9958;33.196;-97.114;2024-02-26T12:47:55;13.60;99.90
19622;DHT22;9958;33.196;-97.114;2024-02-26T12:50:23;13.60;99.90
19622;DHT22;9958;33.196;-97.114;2024-02-26T12:52:51;13.60;99.90
19622;DHT22;9958;33.196;-97.114;2024-02-26T12:55:21;13.50;99.90
19622;DHT22;9958;33.196;-97.114;2024-02-26T12:57:52;13.50;99.90
19622;DHT22;9958;33.196;-97.114;2024-02-26T13:00:23;13.50;99.90
19622;DHT22;9958;33.196;-97.114;2024-02-26T13:02:52;13.40;99.90
19622;DHT22;9958;33.196;-97.114;2024-02-26T13:05:22;13.40;99.90
19622;DHT22;9958;33.196;-97.114;2024-02-26T13:07:50;13.40;99.90
19622;DHT22;9958;33.196;-97.114;2024-02-26T13:10:19;13.30;99.90
19622;DHT22;9958;33.196;-97.114;2024-02-26T13:12:50;13.30;99.90
19622;DHT22;9958;33.196;-97.114;2024-02-26T13:15:19;13.30;99.90
19622;DHT22;9958;33.196;-97.114;2024-02-26T13:17:48;13.30;99.90
19622;DHT22;9958;33.196;-97.114;2024-02-26T13:20:26;13.30;99.90
19622;DHT22;9958;33.196;-97.114;2024-02-26T13:23:01;13.20;99.90
19622;DHT22;9958;33.196;-97.114;2024-02-26T13:25:29;13.20;99.90
19622;DHT22;9958;33.196;-97.114;2024-02-26T13:28:07;13.20;99.90
19622;DHT22;9958;33.196;-97.114;2024-02-26T13:30:37;13.20;99.90
19622;DHT22;9958;33.196;-97.114;2024-02-26T13:33:08;13.20;99.90
19622;DHT22;9958;33.196;-97.114;2024-02-26T13:35:37;13.30;99.90
19622;DHT22;9958;33.196;-97.114;2024-02-26T13:38:05;13.30;99.90
19622;DHT22;9958;33.196;-97.114;2024-02-26T13:40:34;13.40;99.90
19622;DHT22;9958;33.196;-97.114;2024-02-26T13:43:03;13.40;99.90
19622;DHT22;9958;33.196;-97.114;2024-02-26T13:45:34;13.50;99.90
19622;DHT22;9958;33.196;-97.114;2024-02-26T13:48:04;13.50;99.90
19622;DHT22;9958;33.196;-97.114;2024-02-26T13:50:33;13.60;99.90
19622;DHT22;9958;33.196;-97.114;2024-02-26T13:53:01;13.70;99.90
19622;DHT22;9958;33.196;-97.114;2024-02-26T13:55:31;13.80;99.90
19622;DHT22;9958;33.196;-97.114;2024-02-26T13:58:00;14.00;99.90
19622;DHT22;9958;33.196;-97.114;2024-02-26T14:00:29;14.10;99.90
19622;DHT22;9958;33.196;-97.114;2024-02-26T14:03:01;14.30;99.90
19622;DHT22;9958;33.196;-97.114;2024-02-26T14:05:30;14.40;99.90
19622;DHT22;9958;33.196;-97.114;2024-02-26T14:07:58;14.50;99.90
19622;DHT22;9958;33.196;-97.114;2024-02-26T14:10:27;14.70;99.90
19622;DHT22;9958;33.196;-97.114;2024-02-26T14:12:56;14.90;99.90
19622;DHT22;9958;33.196;-97.114;2024-02-26T14:15:25;15.10;99.90
19622;DHT22;9958;33.196;-97.114;2024-02-26T14:17:53;15.30;99.90
19622;DHT22;9958;33.196;-97.114;2024-02-26T14:20:24;15.50;99.90
19622;DHT22;9958;33.196;-97.114;2024-02-26T14:22:53;15.70;99.90
19622;DHT22;9958;33.196;-97.114;2024-02-26T14:25:22;15.80;99.90
19622;DHT22;9958;33.196;-97.114;2024-02-26T14:27:50;16.00;99.90
19622;DHT22;9958;33.196;-97.114;2024-02-26T14:30:18;16.20;99.90
19622;DHT22;9958;33.196;-97.114;2024-02-26T14:32:47;16.40;99.90
19622;DHT22;9958;33.196;-97.114;2024-02-26T14:35:15;16.50;99.90
19622;DHT22;9958;33.196;-97.114;2024-02-26T14:37:45;16.70;99.90
19622;DHT22;9958;33.196;-97.114;2024-02-26T14:40:15;16.90;99.90
19622;DHT22;9958;33.196;-97.114;2024-02-26T14:42:44;17.10;99.90
19622;DHT22;9958;33.196;-97.114;2024-02-26T14:45:13;17.30;99.90
19622;DHT22;9958;33.196;-97.114;2024-02-26T14:47:41;17.50;99.90
19622;DHT22;9958;33.196;-97.114;2024-02-26T14:50:09;17.70;99.90
19622;DHT22;9958;33.196;-97.114;2024-02-26T14:52:38;17.90;99.90
19622;DHT22;9958;33.196;-97.114;2024-02-26T14:55:08;18.00;99.90
19622;DHT22;9958;33.196;-97.114;2024-02-26T14:57:36;18.20;99.90
19622;DHT22;9958;33.196;-97.114;2024-02-26T15:00:06;18.40;99.90
19622;DHT22;9958;33.196;-97.114;2024-02-26T15:02:36;18.70;98.80
19622;DHT22;9958;33.196;-97.114;2024-02-26T15:05:05;18.80;97.40
19622;DHT22;9958;33.196;-97.114;2024-02-26T15:07:34;19.00;96.30
19622;DHT22;9958;33.196;-97.114;2024-02-26T15:10:04;19.20;95.10
19622;DHT22;9958;33.196;-97.114;2024-02-26T15:12:34;19.40;95.50
19622;DHT22;9958;33.196;-97.114;2024-02-26T15:15:04;19.60;95.00
19622;DHT22;9958;33.196;-97.114;2024-02-26T15:17:32;19.80;93.50
19622;DHT22;9958;33.196;-97.114;2024-02-26T15:20:01;19.90;92.20
19622;DHT22;9958;33.196;-97.114;2024-02-26T15:22:29;20.10;90.80
19622;DHT22;9958;33.196;-97.114;2024-02-26T15:24:58;20.30;91.40
19622;DHT22;9958;33.196;-97.114;2024-02-26T15:27:26;20.50;91.50
19622;DHT22;9958;33.196;-97.114;2024-02-26T15:29:56;20.70;90.20